QUAO2: Spring River Near Quapaw, OK

Data processed at Thu May 23 2019 23:50


All information presented herein is the property of the government of the United States of America and may be revised or deleted at any time without prior notice.
Dissemination of this information without the expressed written consent of the Public Affairs Office, Tulsa District U.S. Army Corps of Engineers is strictly prohibited.
These data are gathered electronically and, as presented, have not undergone any form of quality control. These data are not guaranteed to be valid or correct.
Go to home page.
Go to station list.
Go to home page.

Upstream stations:

Downstream station:
Previous Day
Next Day
Current Day
    
SHEF ID:       QUAO2     Spring River near Quapaw, OK
STATION TYPE:  
Regulating: Stage =    20.00, Flow =    32739

               PRECIP     STAGE  STAGE(2)  RIV-FLOW  BAT-LOAD
                   in        ft        ft       cfs      volt
              Ccp-Rev   Ccp-Rev   Ccp-Rev   Ccp-Rev   Ccp-Rev
(US/Central)
05/23 00:00      0.00     28.11     29.02     67717     12.41
05/23 01:00      1.12     28.53     29.20     70131     12.41
05/23 02:00      0.48     28.93     29.40     72618     12.41
05/23 03:00      0.11     29.42     29.60     75733     12.41
05/23 04:00      0.14     29.07     29.80     73500     12.41
05/23 05:00      1.56     30.09     30.25     80271     12.41
05/23 06:00      0.03     29.22     30.78     74451     12.41
05/23 07:00      0.02     30.04     31.12     79927     12.41
05/23 08:00      0.00     30.03     31.46     79859     12.41
05/23 09:00      0.00     30.19     31.94     80961     12.41
05/23 10:00      0.00     30.63     32.33     84033     12.89
05/23 11:00      0.00     30.91     32.73     86021     13.21
05/23 12:00      0.00     31.36     32.95     89268     13.05
05/23 13:00      0.00     31.31     33.17     88904     13.29
05/23 14:00      0.00     31.76     33.43     92210     13.21
05/23 15:00      0.00     31.82     33.52     92656     13.05
05/23 16:00      0.00     31.53     33.62     90512     13.13
05/23 17:00      0.00     31.86     33.77     92954     13.21
05/23 18:00      0.00     31.69     33.79     91691     13.13
05/23 19:00      0.00     31.97     33.78     93775     13.05
05/23 20:00      0.00     32.03     33.69     94226     12.97
05/23 21:00      0.00     31.77     33.59     92284     12.65
05/23 22:00      0.00     31.72     33.48     91914     12.49
05/23 23:00      0.00     31.52     33.38     90439     12.49